Time;durP1;ratioP1;P1;durP2;ratioP2;P2;SDS_P1;SDS_P2;PMS_P1;PMS_P2;Temp;Humidity;BMP_temperature;BMP_pressure;BME280_temperature;BME280_humidity;BME280_pressure;Samples;Min_cycle;Max_cycle;Signal;HPM_P1;HPM_P2
2021/05/28 00:02:00;;;;;;;7.13;6.50;;;12.30;1.00;;;;;;5000205;28;20437;-79
2021/05/28 00:04:26;;;;;;;7.20;6.50;;;12.30;1.00;;;;;;5007843;28;20493;-77
2021/05/28 00:06:52;;;;;;;5.80;5.30;;;12.20;1.00;;;;;;5014061;28;21410;-79
2021/05/28 00:09:18;;;;;;;6.70;6.20;;;12.20;1.00;;;;;;5016970;28;20427;-77
2021/05/28 00:11:46;;;;;;;7.43;6.80;;;12.20;1.00;;;;;;5013198;28;20462;-78
2021/05/28 00:14:12;;;;;;;7.40;6.60;;;12.20;1.00;;;;;;5011421;28;20456;-77
2021/05/28 00:16:38;;;;;;;8.00;7.33;;;12.20;1.00;;;;;;5013241;28;20485;-77
2021/05/28 00:19:04;;;;;;;9.00;8.30;;;12.20;1.00;;;;;;5001478;28;20444;-76
2021/05/28 00:21:31;;;;;;;9.00;8.10;;;12.20;1.00;;;;;;5007325;28;20477;-77
2021/05/28 00:23:57;;;;;;;9.43;7.37;;;12.20;1.00;;;;;;5010517;28;20453;-77
2021/05/28 00:26:23;;;;;;;10.40;7.63;;;12.20;1.00;;;;;;5013969;28;20446;-77
2021/05/28 00:28:50;;;;;;;8.47;7.50;;;12.20;1.00;;;;;;5007665;28;20406;-78
2021/05/28 00:31:17;;;;;;;8.60;7.80;;;12.20;1.00;;;;;;5014792;28;20423;-77
2021/05/28 00:33:43;;;;;;;8.73;6.73;;;12.20;1.00;;;;;;5008406;28;20502;-77
2021/05/28 00:36:09;;;;;;;7.63;6.97;;;12.20;1.00;;;;;;5017365;28;22246;-77
2021/05/28 00:38:35;;;;;;;7.40;6.80;;;12.20;1.00;;;;;;4996440;28;21156;-77
2021/05/28 00:41:02;;;;;;;8.20;7.50;;;12.20;1.00;;;;;;5013135;28;20442;-77
2021/05/28 00:43:28;;;;;;;8.37;7.57;;;12.20;1.00;;;;;;5008672;28;20557;-77
2021/05/28 00:45:55;;;;;;;7.30;6.70;;;12.20;1.00;;;;;;5010441;28;21294;-77
2021/05/28 00:48:22;;;;;;;8.70;8.00;;;12.20;1.00;;;;;;5011622;28;20486;-77
2021/05/28 00:50:48;;;;;;;7.37;6.77;;;12.20;1.00;;;;;;5017371;28;20473;-77
2021/05/28 00:53:14;;;;;;;7.67;6.97;;;12.20;1.00;;;;;;5016156;28;20549;-77
2021/05/28 00:55:41;;;;;;;8.37;7.57;;;12.20;1.00;;;;;;5020935;28;20467;-77
2021/05/28 00:58:07;;;;;;;7.90;7.20;;;12.20;1.00;;;;;;5018480;28;20449;-78
2021/05/28 01:00:34;;;;;;;7.73;6.93;;;12.20;1.00;;;;;;5012073;28;20474;-77
2021/05/28 01:03:02;;;;;;;7.67;7.00;;;12.10;1.00;;;;;;5006589;28;20461;-78
2021/05/28 01:05:28;;;;;;;9.00;7.40;;;12.20;1.00;;;;;;5002888;28;20469;-76
2021/05/28 01:07:55;;;;;;;6.97;6.40;;;12.10;1.00;;;;;;5009861;28;20434;-78
2021/05/28 01:10:21;;;;;;;7.93;7.20;;;12.10;1.00;;;;;;5000114;28;20452;-78
2021/05/28 01:12:47;;;;;;;8.97;8.17;;;12.10;1.00;;;;;;5004577;28;20453;-77
2021/05/28 01:15:13;;;;;;;8.77;8.07;;;12.20;1.00;;;;;;5004128;28;20883;-78
2021/05/28 01:17:40;;;;;;;9.27;8.50;;;12.10;1.00;;;;;;5007825;28;20466;-78
2021/05/28 01:20:09;;;;;;;9.00;8.20;;;12.10;1.00;;;;;;5002825;28;20480;-77
2021/05/28 01:22:37;;;;;;;9.60;8.77;;;12.10;1.00;;;;;;5004765;28;20930;-77
2021/05/28 01:25:04;;;;;;;9.33;8.43;;;12.10;1.00;;;;;;5004606;28;20453;-77
2021/05/28 01:27:30;;;;;;;11.40;8.50;;;12.10;1.00;;;;;;5009417;28;20528;-77
2021/05/28 01:29:57;;;;;;;9.13;8.33;;;12.10;1.00;;;;;;5005942;28;20998;-77
2021/05/28 01:32:23;;;;;;;9.27;8.50;;;12.10;1.00;;;;;;5006070;28;20468;-77
2021/05/28 01:34:50;;;;;;;9.10;8.30;;;12.10;1.00;;;;;;5004293;28;20453;-76
2021/05/28 01:37:16;;;;;;;8.13;7.27;;;12.10;1.00;;;;;;5008916;28;20440;-77
2021/05/28 01:39:46;;;;;;;9.13;8.33;;;12.00;1.00;;;;;;5002324;28;24025;-76
2021/05/28 01:42:12;;;;;;;8.77;7.47;;;12.10;1.00;;;;;;4986914;28;20999;-77
2021/05/28 01:44:38;;;;;;;8.73;7.90;;;12.00;1.00;;;;;;5010245;28;20462;-77
2021/05/28 01:47:04;;;;;;;8.73;7.93;;;12.00;1.00;;;;;;5004887;28;21043;-76
2021/05/28 01:49:31;;;;;;;9.37;8.57;;;12.00;1.00;;;;;;5007395;28;20505;-76
2021/05/28 01:51:57;;;;;;;10.10;9.20;;;12.00;1.00;;;;;;5005454;28;20472;-78
2021/05/28 01:54:23;;;;;;;9.20;8.37;;;11.90;1.00;;;;;;5007097;28;20454;-78
2021/05/28 01:56:51;;;;;;;10.20;9.20;;;12.00;1.00;;;;;;5004923;28;21243;-76
2021/05/28 01:59:24;;;;;;;10.23;9.33;;;12.00;1.00;;;;;;5009014;28;20870;-77
2021/05/28 02:01:50;;;;;;;10.83;9.83;;;12.00;1.00;;;;;;5005006;28;20457;-78
2021/05/28 02:04:16;;;;;;;9.93;8.93;;;12.00;1.00;;;;;;5009459;28;20607;-77
2021/05/28 02:06:43;;;;;;;10.83;10.03;;;12.00;1.00;;;;;;5007482;28;20942;-77
2021/05/28 02:09:09;;;;;;;10.10;9.20;;;12.00;1.00;;;;;;5007890;28;21036;-77
2021/05/28 02:11:35;;;;;;;10.37;9.43;;;12.00;1.00;;;;;;5004447;28;21211;-79
2021/05/28 02:14:02;;;;;;;10.50;9.60;;;12.00;1.00;;;;;;5011562;28;20462;-78
2021/05/28 02:16:29;;;;;;;9.43;8.60;;;12.00;1.00;;;;;;4994566;28;20509;-78
2021/05/28 02:18:56;;;;;;;12.13;9.73;;;12.00;1.00;;;;;;5014352;28;20805;-77
2021/05/28 02:21:23;;;;;;;9.47;8.57;;;11.90;1.00;;;;;;5008464;28;21041;-78
2021/05/28 02:23:49;;;;;;;9.60;8.80;;;11.90;1.00;;;;;;5000098;28;20573;-78
2021/05/28 02:26:15;;;;;;;7.78;7.10;;;11.90;1.00;;;;;;5001266;28;20480;-76
2021/05/28 02:28:41;;;;;;;8.70;7.80;;;11.90;1.00;;;;;;5002759;28;20222;-78
2021/05/28 02:31:08;;;;;;;8.73;7.83;;;11.90;1.00;;;;;;4992862;28;20547;-77
2021/05/28 02:33:36;;;;;;;7.70;7.10;;;11.80;1.00;;;;;;5004295;28;20464;-78
2021/05/28 02:36:02;;;;;;;6.93;6.43;;;11.80;1.00;;;;;;5006003;28;20461;-78
2021/05/28 02:38:28;;;;;;;7.23;6.57;;;11.80;1.00;;;;;;5004896;28;20459;-77
2021/05/28 02:40:54;;;;;;;7.13;6.43;;;11.70;1.00;;;;;;5009885;28;20506;-77
2021/05/28 02:43:21;;;;;;;7.47;6.83;;;11.70;1.00;;;;;;5010430;28;20462;-78
2021/05/28 02:45:47;;;;;;;8.30;7.50;;;11.70;1.00;;;;;;5012620;28;20465;-78
2021/05/28 02:48:14;;;;;;;7.87;7.17;;;11.60;1.00;;;;;;5020777;28;20221;-77
2021/05/28 02:50:40;;;;;;;7.30;6.60;;;11.60;1.00;;;;;;5013427;28;20465;-78
2021/05/28 02:53:06;;;;;;;6.87;6.27;;;11.60;1.00;;;;;;5006973;28;20488;-78
2021/05/28 02:55:33;;;;;;;5.57;5.05;;;11.60;1.00;;;;;;5010400;28;20506;-79
2021/05/28 02:57:59;;;;;;;5.60;5.20;;;11.60;1.00;;;;;;5010314;28;20230;-77
2021/05/28 03:00:26;;;;;;;5.80;5.30;;;11.60;1.00;;;;;;5008611;28;20234;-79
2021/05/28 03:02:52;;;;;;;6.53;5.93;;;11.60;1.00;;;;;;5009236;28;20450;-78
2021/05/28 03:05:19;;;;;;;6.88;5.18;;;11.60;1.00;;;;;;4987487;28;20461;-77
2021/05/28 03:07:45;;;;;;;6.77;5.53;;;11.50;1.00;;;;;;5010077;28;20218;-77
2021/05/28 03:10:13;;;;;;;6.40;5.90;;;11.50;1.00;;;;;;5007398;28;21799;-79
2021/05/28 03:12:39;;;;;;;5.63;5.13;;;11.60;1.00;;;;;;5006374;28;23523;-78
2021/05/28 03:15:07;;;;;;;5.70;5.30;;;11.50;1.00;;;;;;5004683;28;20577;-78
2021/05/28 03:17:34;;;;;;;6.23;5.60;;;11.50;1.00;;;;;;5013490;28;20461;-78
2021/05/28 03:20:03;;;;;;;6.70;5.70;;;11.50;1.00;;;;;;5006531;28;20884;-77
2021/05/28 03:22:31;;;;;;;5.57;5.03;;;11.50;1.00;;;;;;5007946;28;21003;-77
2021/05/28 03:24:58;;;;;;;5.97;5.47;;;11.50;1.00;;;;;;5008409;28;20451;-77
2021/05/28 03:27:24;;;;;;;10.97;9.87;;;11.50;1.00;;;;;;5012135;28;20534;-78
2021/05/28 03:29:50;;;;;;;6.80;6.10;;;11.40;1.00;;;;;;5008660;28;20472;-78
2021/05/28 03:32:16;;;;;;;12.47;6.67;;;11.40;1.00;;;;;;5009015;28;20446;-79
2021/05/28 03:34:42;;;;;;;6.40;5.80;;;11.40;1.00;;;;;;5009300;28;20468;-78
2021/05/28 03:37:09;;;;;;;8.23;6.30;;;11.40;1.00;;;;;;5021336;28;20823;-77
2021/05/28 03:39:36;;;;;;;8.00;5.93;;;11.30;1.00;;;;;;5022360;28;20418;-76
2021/05/28 03:42:02;;;;;;;5.67;5.17;;;11.30;1.00;;;;;;5016063;28;20422;-78
2021/05/28 03:44:29;;;;;;;6.07;5.57;;;11.30;1.00;;;;;;5017388;28;20455;-77
2021/05/28 03:46:55;;;;;;;10.83;5.50;;;11.30;1.00;;;;;;5009236;28;20455;-78
2021/05/28 03:49:21;;;;;;;6.33;5.83;;;11.30;1.00;;;;;;4988737;28;20459;-78
2021/05/28 03:51:48;;;;;;;6.87;5.30;;;11.30;1.00;;;;;;5005150;28;20510;-78
2021/05/28 03:54:14;;;;;;;4.95;4.55;;;11.30;1.00;;;;;;5011150;28;20944;-78
2021/05/28 03:56:41;;;;;;;4.60;4.30;;;11.20;1.00;;;;;;5006928;28;20236;-78
2021/05/28 03:59:08;;;;;;;4.37;3.97;;;11.20;1.00;;;;;;5008665;28;20424;-78
2021/05/28 04:01:34;;;;;;;7.25;4.40;;;11.20;1.00;;;;;;4988531;28;20475;-79
2021/05/28 04:04:00;;;;;;;5.18;4.68;;;11.20;1.00;;;;;;5006521;28;20718;-79
2021/05/28 04:06:26;;;;;;;4.47;4.07;;;11.20;1.00;;;;;;5007398;28;20337;-79
2021/05/28 04:08:53;;;;;;;9.60;6.50;;;11.20;1.00;;;;;;5007237;28;20272;-78
2021/05/28 04:11:19;;;;;;;5.97;4.97;;;11.20;1.00;;;;;;5009339;28;20972;-79
2021/05/28 04:13:46;;;;;;;6.83;3.97;;;11.30;1.00;;;;;;5011113;28;20230;-77
2021/05/28 04:16:12;;;;;;;4.23;3.83;;;11.30;1.00;;;;;;5009489;28;20527;-78
2021/05/28 04:18:38;;;;;;;4.80;4.10;;;11.40;1.00;;;;;;5008463;28;20435;-78
2021/05/28 04:21:05;;;;;;;4.17;3.77;;;11.40;1.00;;;;;;5009439;28;20666;-77
2021/05/28 04:23:31;;;;;;;4.05;3.47;;;11.50;1.00;;;;;;5002948;28;20593;-76
2021/05/28 04:25:57;;;;;;;4.53;3.80;;;11.50;1.00;;;;;;5019913;28;20680;-79
2021/05/28 04:28:25;;;;;;;10.40;4.73;;;11.50;1.00;;;;;;5010665;28;20965;-79
2021/05/28 04:30:53;;;;;;;4.60;4.07;;;11.50;1.00;;;;;;5013520;28;20476;-78
2021/05/28 04:33:19;;;;;;;5.93;5.40;;;11.50;1.00;;;;;;5009858;28;20440;-78
2021/05/28 04:35:45;;;;;;;6.60;4.80;;;11.50;1.00;;;;;;5010967;28;20428;-78
2021/05/28 04:38:11;;;;;;;5.77;4.13;;;11.50;1.00;;;;;;5010096;28;20465;-77
2021/05/28 04:40:38;;;;;;;6.20;4.77;;;11.60;1.00;;;;;;5011792;28;20460;-77
2021/05/28 04:43:04;;;;;;;5.93;4.63;;;11.60;1.00;;;;;;5012683;28;20457;-77
2021/05/28 04:45:30;;;;;;;5.73;5.00;;;11.60;1.00;;;;;;5010224;28;20233;-78
2021/05/28 04:47:57;;;;;;;7.20;4.43;;;11.70;1.00;;;;;;5010374;28;20455;-77
2021/05/28 04:50:30;;;;;;;4.53;4.10;;;11.70;1.00;;;;;;5018779;28;20433;-78
2021/05/28 04:52:56;;;;;;;5.13;4.63;;;11.80;1.00;;;;;;4999528;28;20442;-78
2021/05/28 04:55:22;;;;;;;6.90;4.70;;;11.80;1.00;;;;;;5025061;28;20450;-77
2021/05/28 04:57:48;;;;;;;10.13;6.17;;;11.80;1.00;;;;;;5015790;28;20491;-76
2021/05/28 05:00:15;;;;;;;4.80;4.40;;;11.90;1.00;;;;;;5019827;28;20468;-77
2021/05/28 05:02:42;;;;;;;4.50;4.10;;;12.00;1.00;;;;;;5011010;28;20445;-79
2021/05/28 05:05:10;;;;;;;5.63;4.97;;;12.00;1.00;;;;;;5009998;28;20449;-79
2021/05/28 05:07:36;;;;;;;4.90;4.40;;;12.00;1.00;;;;;;5005521;28;20472;-79
2021/05/28 05:10:03;;;;;;;6.00;5.50;;;12.10;1.00;;;;;;5010700;28;20515;-78
2021/05/28 05:12:30;;;;;;;6.50;4.93;;;12.10;1.00;;;;;;5014845;28;21044;-77
2021/05/28 05:14:56;;;;;;;11.20;9.20;;;12.10;1.00;;;;;;5014507;28;20446;-78
2021/05/28 05:17:22;;;;;;;6.37;4.73;;;12.10;1.00;;;;;;5011855;28;20496;-80
2021/05/28 05:19:48;;;;;;;6.83;5.10;;;12.10;1.00;;;;;;5013442;28;20968;-78
2021/05/28 05:22:15;;;;;;;5.50;5.00;;;12.10;1.00;;;;;;5015394;28;21338;-75
2021/05/28 05:24:42;;;;;;;5.70;5.10;;;12.10;1.00;;;;;;5011705;28;20286;-78
2021/05/28 05:27:08;;;;;;;5.43;4.93;;;12.10;1.00;;;;;;5016465;28;20512;-77
2021/05/28 05:29:35;;;;;;;5.00;4.60;;;12.20;1.00;;;;;;5018824;28;20425;-79
2021/05/28 05:32:01;;;;;;;5.40;4.87;;;12.30;1.00;;;;;;5028722;28;20453;-84
2021/05/28 05:34:27;;;;;;;5.70;5.20;;;12.30;1.00;;;;;;5012283;28;20444;-80
2021/05/28 05:36:53;;;;;;;17.60;11.73;;;12.20;1.00;;;;;;5018547;28;20462;-83
2021/05/28 05:39:21;;;;;;;10.07;6.10;;;12.30;1.00;;;;;;5014375;28;20457;-77
2021/05/28 05:41:48;;;;;;;6.80;5.60;;;12.30;1.00;;;;;;5012368;28;21252;-79
2021/05/28 05:44:14;;;;;;;5.90;5.30;;;12.30;1.00;;;;;;4996248;28;20472;-77
2021/05/28 05:46:41;;;;;;;7.63;5.17;;;12.30;1.00;;;;;;4987438;28;20485;-76
2021/05/28 05:49:07;;;;;;;7.80;5.70;;;12.40;1.00;;;;;;5007617;28;20472;-78
2021/05/28 05:51:33;;;;;;;5.90;5.30;;;12.50;1.00;;;;;;5006847;28;20468;-78
2021/05/28 05:53:59;;;;;;;6.73;5.23;;;12.60;1.00;;;;;;5010212;28;21335;-78
2021/05/28 05:56:26;;;;;;;7.20;6.40;;;12.60;1.00;;;;;;5012291;28;20428;-77
2021/05/28 05:58:53;;;;;;;6.00;5.13;;;12.60;1.00;;;;;;5008675;28;20461;-76
2021/05/28 06:01:19;;;;;;;6.23;4.93;;;12.70;1.00;;;;;;5012847;28;20477;-77
2021/05/28 06:03:46;;;;;;;5.53;5.03;;;12.80;1.00;;;;;;5010314;28;20418;-77
2021/05/28 06:06:12;;;;;;;6.37;5.57;;;12.90;1.00;;;;;;5005481;28;20450;-79
2021/05/28 06:08:38;;;;;;;7.13;5.60;;;12.90;1.00;;;;;;5005372;28;20446;-76
2021/05/28 06:11:05;;;;;;;6.70;6.00;;;12.90;1.00;;;;;;5003016;28;21210;-77
2021/05/28 06:13:33;;;;;;;6.50;5.90;;;12.90;1.00;;;;;;4997891;28;20452;-77
2021/05/28 06:15:59;;;;;;;6.30;5.80;;;12.80;1.00;;;;;;5011554;28;20450;-78
2021/05/28 06:18:25;;;;;;;5.57;5.17;;;12.90;1.00;;;;;;5009325;28;20439;-77
2021/05/28 06:20:51;;;;;;;8.47;6.50;;;12.90;1.00;;;;;;5004346;28;20797;-76
2021/05/28 06:23:17;;;;;;;6.37;5.70;;;13.00;1.00;;;;;;5009408;28;20418;-78
2021/05/28 06:25:46;;;;;;;6.50;5.40;;;13.10;1.00;;;;;;5007720;28;21804;-78
2021/05/28 06:28:12;;;;;;;7.53;5.43;;;13.10;1.00;;;;;;5005842;28;20559;-77
2021/05/28 06:30:39;;;;;;;7.20;5.80;;;13.20;1.00;;;;;;5010083;28;20470;-77
2021/05/28 06:33:07;;;;;;;6.77;5.50;;;13.30;1.00;;;;;;5014644;28;20453;-78
2021/05/28 06:35:33;;;;;;;6.73;4.77;;;13.30;1.00;;;;;;5011546;28;20447;-78
2021/05/28 06:37:59;;;;;;;6.90;5.37;;;13.30;1.00;;;;;;5014661;28;20450;-77
2021/05/28 06:40:26;;;;;;;5.10;4.57;;;13.40;1.00;;;;;;5025742;28;20431;-76
2021/05/28 06:42:52;;;;;;;7.23;5.27;;;13.30;1.00;;;;;;5014008;28;20465;-78
2021/05/28 06:45:19;;;;;;;7.37;6.77;;;13.30;1.00;;;;;;5017862;28;20457;-80
2021/05/28 06:47:47;;;;;;;6.20;5.70;;;13.40;1.00;;;;;;5015939;28;20445;-78
2021/05/28 06:50:15;;;;;;;5.37;4.90;;;13.40;1.00;;;;;;5018749;28;20540;-80
2021/05/28 06:52:42;;;;;;;8.07;7.30;;;13.40;1.00;;;;;;5008904;28;20458;-80
2021/05/28 06:55:10;;;;;;;6.13;5.53;;;13.50;1.00;;;;;;5006581;28;20410;-78
2021/05/28 06:57:37;;;;;;;5.63;5.13;;;13.40;1.00;;;;;;5011107;28;20457;-79
2021/05/28 07:00:04;;;;;;;8.60;5.67;;;13.50;1.00;;;;;;5011489;28;20456;-80
2021/05/28 07:02:30;;;;;;;5.73;5.23;;;13.50;1.00;;;;;;5009198;28;21307;-77
2021/05/28 07:04:57;;;;;;;6.57;5.97;;;13.50;1.00;;;;;;5017100;28;21139;-77
2021/05/28 07:07:23;;;;;;;6.83;6.33;;;13.40;1.00;;;;;;5011778;28;20978;-77
2021/05/28 07:09:50;;;;;;;7.13;6.53;;;13.40;1.00;;;;;;5010050;28;20444;-77
2021/05/28 07:12:16;;;;;;;7.00;6.30;;;13.40;1.00;;;;;;5012703;28;20464;-78
2021/05/28 07:14:42;;;;;;;6.60;6.10;;;13.50;1.00;;;;;;5016063;28;20488;-78
2021/05/28 07:17:08;;;;;;;7.13;6.50;;;13.70;1.00;;;;;;5025623;28;20491;-80
2021/05/28 07:19:34;;;;;;;7.80;6.13;;;13.80;1.00;;;;;;5021943;28;20434;-80
2021/05/28 07:22:01;;;;;;;6.10;5.50;;;13.80;1.00;;;;;;5022822;28;20433;-80
2021/05/28 07:24:29;;;;;;;7.83;6.50;;;13.80;1.00;;;;;;5014460;28;20484;-80
2021/05/28 07:26:55;;;;;;;6.40;5.90;;;13.90;1.00;;;;;;5016601;28;23286;-79
2021/05/28 07:29:22;;;;;;;7.33;5.80;;;14.00;1.00;;;;;;5011090;28;21511;-78
2021/05/28 07:31:48;;;;;;;10.53;6.07;;;14.00;1.00;;;;;;5017679;28;20656;-81
2021/05/28 07:34:14;;;;;;;6.60;5.90;;;14.10;1.00;;;;;;5013962;28;20590;-81
2021/05/28 07:36:40;;;;;;;6.20;5.60;;;14.00;1.00;;;;;;5016966;28;20488;-79
2021/05/28 07:39:08;;;;;;;5.73;5.23;;;13.80;1.00;;;;;;5012018;28;20454;-79
2021/05/28 07:41:35;;;;;;;6.63;5.80;;;13.80;1.00;;;;;;5023211;28;20453;-80
2021/05/28 07:44:01;;;;;;;6.13;5.53;;;13.80;1.00;;;;;;5014311;28;20449;-80
2021/05/28 07:46:28;;;;;;;6.10;5.60;;;13.90;1.00;;;;;;5017299;28;20473;-79
2021/05/28 07:48:54;;;;;;;6.13;5.10;;;13.90;1.00;;;;;;5018501;28;20452;-80
2021/05/28 07:51:20;;;;;;;5.97;5.37;;;13.90;1.00;;;;;;5013825;28;20418;-80
2021/05/28 07:53:47;;;;;;;7.20;5.97;;;14.00;1.00;;;;;;5019335;28;20458;-81
2021/05/28 07:56:13;;;;;;;5.90;5.40;;;14.10;1.00;;;;;;5015808;28;20911;-81
2021/05/28 07:58:40;;;;;;;6.13;5.37;;;14.30;1.00;;;;;;5019385;28;20465;-79
2021/05/28 08:01:07;;;;;;;5.27;4.83;;;14.70;1.00;;;;;;5016197;28;20451;-81
2021/05/28 08:03:33;;;;;;;5.43;5.00;;;14.90;1.00;;;;;;5022259;28;20550;-79
2021/05/28 08:05:59;;;;;;;6.93;4.97;;;15.30;1.00;;;;;;5008254;28;20462;-81
2021/05/28 08:08:27;;;;;;;4.80;4.40;;;15.60;1.00;;;;;;5011941;28;20472;-80
2021/05/28 08:10:54;;;;;;;5.40;4.37;;;15.90;1.00;;;;;;5010521;28;20863;-81
2021/05/28 08:13:21;;;;;;;4.27;3.70;;;16.10;1.00;;;;;;5013388;28;20502;-79
2021/05/28 08:15:48;;;;;;;6.23;4.23;;;16.10;1.00;;;;;;5015272;28;20553;-81
2021/05/28 08:18:14;;;;;;;3.43;3.20;;;16.00;1.00;;;;;;5028487;28;20536;-80
2021/05/28 08:20:42;;;;;;;4.80;4.40;;;16.00;1.00;;;;;;5017173;28;20525;-82
2021/05/28 08:23:08;;;;;;;5.77;4.70;;;15.90;1.00;;;;;;5019823;28;20445;-82
2021/05/28 08:25:34;;;;;;;5.40;5.00;;;16.00;1.00;;;;;;5020831;28;20544;-80
2021/05/28 08:28:01;;;;;;;5.73;5.23;;;16.20;1.00;;;;;;5015956;28;21710;-83
2021/05/28 08:30:28;;;;;;;5.17;4.00;;;16.40;1.00;;;;;;5017071;28;21851;-80
2021/05/28 08:32:54;;;;;;;5.00;4.60;;;16.60;1.00;;;;;;5009874;28;20586;-81
2021/05/28 08:35:20;;;;;;;4.17;3.87;;;16.70;1.00;;;;;;5015197;28;20419;-81
2021/05/28 08:37:47;;;;;;;3.93;3.63;;;16.90;1.00;;;;;;5016757;28;20437;-81
2021/05/28 08:40:15;;;;;;;3.87;3.57;;;17.00;1.00;;;;;;5017819;28;20477;-82
2021/05/28 08:42:43;;;;;;;3.47;3.17;;;17.00;1.00;;;;;;4997084;28;20414;-82
2021/05/28 08:45:10;;;;;;;5.87;4.00;;;16.90;1.00;;;;;;5018650;28;20460;-82
2021/05/28 08:47:39;;;;;;;7.47;4.10;;;17.00;1.00;;;;;;5018588;28;20477;-82
2021/05/28 08:50:08;;;;;;;3.70;3.40;;;17.10;1.00;;;;;;5028263;28;20470;-82
2021/05/28 08:52:35;;;;;;;3.70;3.40;;;17.30;1.00;;;;;;5012087;28;20472;-81
2021/05/28 08:55:01;;;;;;;5.33;4.13;;;17.40;1.00;;;;;;5018759;28;20478;-82
2021/05/28 08:57:28;;;;;;;3.87;3.57;;;17.40;1.00;;;;;;5021591;28;20537;-82
2021/05/28 08:59:54;;;;;;;3.90;3.60;;;17.20;1.00;;;;;;5020142;28;20451;-82
2021/05/28 09:02:34;;;;;;;4.47;4.07;;;17.00;1.00;;;;;;5024216;28;20417;-78
2021/05/28 09:05:06;;;;;;;4.33;3.70;;;17.10;1.00;;;;;;5021535;28;20462;-83
2021/05/28 09:07:32;;;;;;;4.40;4.00;;;17.00;1.00;;;;;;5024042;28;20454;-78
2021/05/28 09:09:58;;;;;;;5.30;4.80;;;17.10;1.00;;;;;;5022288;28;20462;-80
2021/05/28 09:12:26;;;;;;;4.70;4.30;;;17.20;1.00;;;;;;5021436;28;20470;-78
2021/05/28 09:14:52;;;;;;;7.07;6.47;;;17.40;1.00;;;;;;4993137;28;20916;-78
2021/05/28 09:17:18;;;;;;;3.83;3.53;;;17.70;1.00;;;;;;5010473;28;20444;-79
2021/05/28 09:19:52;;;;;;;3.77;3.47;;;18.10;1.00;;;;;;5011694;28;20475;-79
2021/05/28 09:22:20;;;;;;;5.20;3.87;;;18.50;1.00;;;;;;5013148;28;20438;-78
2021/05/28 09:24:47;;;;;;;4.00;3.70;;;18.70;1.00;;;;;;5015003;28;20417;-78
2021/05/28 09:27:23;;;;;;;3.00;2.73;;;18.70;1.00;;;;;;5018427;28;20479;-78
2021/05/28 09:30:00;;;;;;;4.80;3.67;;;18.30;1.00;;;;;;5013563;28;20488;-79
2021/05/28 09:32:27;;;;;;;3.80;2.70;;;18.00;1.00;;;;;;5016996;28;21216;-79
2021/05/28 09:34:53;;;;;;;3.97;3.07;;;18.00;1.00;;;;;;5008481;28;21584;-77
2021/05/28 09:37:33;;;;;;;3.90;2.50;;;17.90;1.00;;;;;;5012507;28;20447;-78
2021/05/28 09:40:08;;;;;;;3.77;3.17;;;17.80;1.00;;;;;;5014181;28;20448;-78
2021/05/28 09:42:52;;;;;;;2.73;2.47;;;17.60;1.00;;;;;;5015538;28;20479;-77
2021/05/28 09:45:23;;;;;;;2.30;1.60;;;17.60;1.00;;;;;;5020663;28;21008;-82
2021/05/28 09:47:49;;;;;;;1.77;1.23;;;18.50;1.00;;;;;;5022722;28;20454;-81
2021/05/28 09:50:16;;;;;;;7.80;3.30;;;19.90;1.00;;;;;;5022367;28;20513;-78
2021/05/28 09:52:44;;;;;;;3.10;1.30;;;20.40;1.00;;;;;;5021542;28;20511;-79
2021/05/28 09:55:12;;;;;;;5.97;3.47;;;20.00;1.00;;;;;;5027066;28;20465;-80
2021/05/28 09:57:40;;;;;;;2.57;1.43;;;19.30;1.00;;;;;;5021263;28;20450;-80
2021/05/28 10:00:10;;;;;;;2.33;1.30;;;18.50;1.00;;;;;;5011189;28;20448;-79
2021/05/28 10:02:42;;;;;;;2.07;1.10;;;17.80;1.00;;;;;;5013564;28;20589;-80
2021/05/28 10:05:09;;;;;;;6.20;2.50;;;17.30;1.00;;;;;;5017060;28;20551;-82
2021/05/28 10:07:37;;;;;;;2.60;1.63;;;16.90;1.00;;;;;;5024234;28;20454;-79
2021/05/28 10:10:06;;;;;;;1.37;1.27;;;16.50;1.00;;;;;;5017926;28;20568;-79
2021/05/28 10:12:32;;;;;;;1.37;1.27;;;16.10;1.00;;;;;;5011005;28;20467;-80
2021/05/28 10:14:58;;;;;;;2.83;1.40;;;15.90;1.00;;;;;;4991362;28;20460;-80
2021/05/28 10:17:24;;;;;;;5.87;1.90;;;16.00;1.00;;;;;;5020363;28;20501;-81
2021/05/28 10:19:51;;;;;;;9.27;7.37;;;16.40;1.00;;;;;;5013397;28;20877;-80
2021/05/28 10:22:18;;;;;;;5.23;4.70;;;17.30;1.00;;;;;;5017221;28;20438;-80
2021/05/28 10:24:45;;;;;;;4.10;1.90;;;18.00;1.00;;;;;;5018988;28;20461;-82
2021/05/28 10:27:20;;;;;;;8.03;5.57;;;18.80;1.00;;;;;;5017354;28;20566;-81
2021/05/28 10:29:49;;;;;;;2.90;1.47;;;19.40;1.00;;;;;;5019555;28;20469;-80
2021/05/28 10:32:16;;;;;;;2.73;1.50;;;20.00;1.00;;;;;;5021579;28;20736;-82
2021/05/28 10:35:12;;;;;;;2.40;2.10;;;20.60;1.00;;;;;;5023944;28;20461;-83
2021/05/28 10:37:39;;;;;;;3.30;2.47;;;20.50;1.00;;;;;;5020314;28;20524;-81
2021/05/28 10:40:27;;;;;;;2.33;1.97;;;20.10;1.00;;;;;;5018227;28;20534;-80
2021/05/28 10:43:03;;;;;;;3.23;2.00;;;19.30;1.00;;;;;;5022510;28;20473;-80
2021/05/28 10:45:56;;;;;;;2.47;2.27;;;18.70;1.00;;;;;;5017309;28;22253;-80
2021/05/28 10:49:01;;;;;;;2.23;2.03;;;18.20;1.00;;;;;;5018987;28;20442;-79
2021/05/28 10:52:13;;;;;;;3.00;2.70;;;17.70;1.00;;;;;;5015188;28;20483;-81
2021/05/28 10:54:52;;;;;;;1.90;1.50;;;17.20;1.00;;;;;;4957249;28;20541;-77
2021/05/28 10:57:30;;;;;;;1.60;1.37;;;16.60;1.00;;;;;;5011507;28;20471;-76
2021/05/28 10:59:59;;;;;;;1.40;1.30;;;16.10;1.00;;;;;;5021093;28;20436;-77
2021/05/28 11:02:46;;;;;;;4.70;3.07;;;15.70;1.00;;;;;;5019373;28;20434;-76
2021/05/28 11:05:12;;;;;;;3.03;2.00;;;15.40;1.00;;;;;;5014520;28;20452;-77
2021/05/28 11:07:43;;;;;;;4.33;2.07;;;15.20;1.00;;;;;;5017626;28;20539;-78
2021/05/28 11:10:25;;;;;;;2.30;1.40;;;15.10;1.00;;;;;;5017244;28;21082;-81
2021/05/28 11:12:51;;;;;;;3.77;2.30;;;15.10;1.00;;;;;;5017626;28;20411;-78
2021/05/28 11:15:25;;;;;;;3.07;2.63;;;15.10;1.00;;;;;;5014954;28;20499;-79
2021/05/28 11:17:58;;;;;;;2.37;1.40;;;15.20;1.00;;;;;;5027090;28;20580;-79
2021/05/28 11:20:29;;;;;;;1.50;1.40;;;15.30;1.00;;;;;;5021062;28;20478;-80
2021/05/28 11:22:55;;;;;;;4.23;2.87;;;15.40;1.00;;;;;;5019673;28;20451;-81
2021/05/28 11:25:23;;;;;;;3.07;2.50;;;15.40;1.00;;;;;;5017001;28;20417;-80
2021/05/28 11:28:09;;;;;;;3.10;1.67;;;15.50;1.00;;;;;;5020035;28;20448;-80
2021/05/28 11:30:45;;;;;;;3.03;2.77;;;15.40;1.00;;;;;;5014834;28;20480;-79
2021/05/28 11:33:37;;;;;;;2.20;2.00;;;15.50;1.00;;;;;;5018309;28;20497;-79
2021/05/28 11:36:19;;;;;;;6.10;5.50;;;15.50;1.00;;;;;;5014761;28;20456;-79
2021/05/28 11:38:54;;;;;;;2.47;2.27;;;15.50;1.00;;;;;;5022851;28;20422;-78
2021/05/28 11:41:21;;;;;;;2.80;2.47;;;15.50;1.00;;;;;;5015954;28;20448;-78
2021/05/28 11:43:47;;;;;;;5.10;2.63;;;15.40;1.00;;;;;;5016356;28;20519;-79
2021/05/28 11:46:14;;;;;;;5.17;2.60;;;15.50;1.00;;;;;;5013144;28;20811;-78
2021/05/28 11:48:41;;;;;;;4.50;1.77;;;15.60;1.00;;;;;;5019797;28;21046;-80
2021/05/28 11:51:07;;;;;;;9.90;4.40;;;15.70;1.00;;;;;;5022797;28;20448;-79
2021/05/28 11:53:35;;;;;;;2.90;1.77;;;16.00;1.00;;;;;;5020367;28;20450;-76
2021/05/28 11:56:02;;;;;;;2.80;1.57;;;16.50;1.00;;;;;;5015622;28;20799;-77
2021/05/28 11:58:32;;;;;;;3.93;1.83;;;17.00;1.00;;;;;;5015287;28;20427;-78
2021/05/28 12:00:59;;;;;;;8.77;1.97;;;17.60;1.00;;;;;;5015039;28;20552;-79
2021/05/28 12:03:26;;;;;;;3.30;2.80;;;18.50;1.00;;;;;;5019141;28;20442;-78
2021/05/28 12:05:55;;;;;;;4.80;2.53;;;20.10;1.00;;;;;;5001519;28;20449;-78
2021/05/28 12:08:24;;;;;;;1.60;1.30;;;22.00;1.00;;;;;;5009901;28;21386;-78
2021/05/28 12:10:52;;;;;;;4.30;1.70;;;23.70;1.00;;;;;;5016925;28;20507;-77
2021/05/28 12:13:19;;;;;;;6.93;3.17;;;25.10;1.00;;;;;;5009751;28;20843;-78
2021/05/28 12:15:47;;;;;;;4.37;1.60;;;25.80;1.00;;;;;;5022338;28;20544;-77
2021/05/28 12:18:19;;;;;;;3.33;1.63;;;26.30;1.00;;;;;;5014408;28;20420;-77
2021/05/28 12:20:48;;;;;;;2.20;1.77;;;26.30;1.00;;;;;;5008083;28;20447;-78
2021/05/28 12:23:22;;;;;;;2.50;1.50;;;25.00;1.00;;;;;;5007722;28;20538;-79
2021/05/28 12:25:52;;;;;;;1.03;0.93;;;24.10;1.00;;;;;;5017095;28;20558;-78
2021/05/28 12:28:30;;;;;;;3.10;1.90;;;24.10;1.00;;;;;;5020023;28;21177;-79
2021/05/28 12:31:00;;;;;;;2.23;2.00;;;23.30;1.00;;;;;;5016644;28;20444;-78
2021/05/28 12:33:28;;;;;;;5.23;2.40;;;21.90;1.00;;;;;;5021077;28;20452;-78
2021/05/28 12:35:58;;;;;;;4.93;2.30;;;20.80;1.00;;;;;;5019161;28;20438;-78
2021/05/28 12:38:31;;;;;;;5.50;5.10;;;19.50;1.00;;;;;;5021512;28;20454;-79
2021/05/28 12:40:57;;;;;;;2.70;2.13;;;18.80;1.00;;;;;;5017557;28;20451;-78
2021/05/28 12:43:26;;;;;;;7.60;6.80;;;18.30;1.00;;;;;;5017305;28;20421;-79
2021/05/28 12:45:56;;;;;;;4.90;3.33;;;17.70;1.00;;;;;;5043733;28;20411;-79
2021/05/28 12:48:43;;;;;;;2.07;1.53;;;17.10;1.00;;;;;;5021230;28;20480;-78
2021/05/28 12:51:12;;;;;;;5.73;2.23;;;16.80;1.00;;;;;;5018861;28;20460;-78
2021/05/28 12:53:40;;;;;;;3.87;2.43;;;16.30;1.00;;;;;;5019644;28;21661;-78
2021/05/28 12:56:08;;;;;;;2.70;2.40;;;16.00;1.00;;;;;;5024765;28;20495;-79
2021/05/28 12:58:39;;;;;;;3.20;2.07;;;15.80;1.00;;;;;;5024954;28;20670;-78
2021/05/28 13:01:07;;;;;;;2.80;2.40;;;15.40;1.00;;;;;;5002594;28;20441;-79